sensor_id;sensor_type;location;lat;lon;timestamp;pressure;altitude;pressure_sealevel;temperature;humidity
22206;BME280;11272;50.104;8.754;2023-04-08T00:01:05;100990.91;;;9.84;78.87
22206;BME280;11272;50.104;8.754;2023-04-08T00:03:31;100988.25;;;9.84;79.25
22206;BME280;11272;50.104;8.754;2023-04-08T00:05:57;100985.66;;;9.83;79.08
22206;BME280;11272;50.104;8.754;2023-04-08T00:08:22;100988.31;;;9.83;78.73
22206;BME280;11272;50.104;8.754;2023-04-08T01:46:19;101027.22;;;7.71;81.70
22206;BME280;11272;50.104;8.754;2023-04-08T01:48:45;101020.19;;;7.67;81.78
22206;BME280;11272;50.104;8.754;2023-04-08T01:51:13;101018.44;;;7.63;81.62
22206;BME280;11272;50.104;8.754;2023-04-08T01:53:39;101017.53;;;7.56;81.90
22206;BME280;11272;50.104;8.754;2023-04-08T01:56:10;101009.59;;;7.54;82.35
22206;BME280;11272;50.104;8.754;2023-04-08T01:58:42;101014.91;;;7.53;82.36
22206;BME280;11272;50.104;8.754;2023-04-08T02:01:13;101011.38;;;7.49;82.42
22206;BME280;11272;50.104;8.754;2023-04-08T02:03:42;101020.19;;;7.44;82.71
22206;BME280;11272;50.104;8.754;2023-04-08T02:06:08;101024.59;;;7.42;82.86
22206;BME280;11272;50.104;8.754;2023-04-08T02:08:34;101018.44;;;7.41;82.94
22206;BME280;11272;50.104;8.754;2023-04-08T02:11:01;101021.06;;;7.38;82.80
22206;BME280;11272;50.104;8.754;2023-04-08T02:13:28;101020.19;;;7.32;83.26
22206;BME280;11272;50.104;8.754;2023-04-08T02:16:03;101020.16;;;7.27;83.25
22206;BME280;11272;50.104;8.754;2023-04-08T02:18:33;101024.56;;;7.22;82.98
22206;BME280;11272;50.104;8.754;2023-04-08T02:21:13;101031.59;;;7.15;83.51
22206;BME280;11272;50.104;8.754;2023-04-08T02:23:40;101038.63;;;7.12;83.50
22206;BME280;11272;50.104;8.754;2023-04-08T02:26:12;101030.69;;;7.09;83.68
22206;BME280;11272;50.104;8.754;2023-04-08T02:28:39;101028.94;;;7.09;83.78
22206;BME280;11272;50.104;8.754;2023-04-08T02:31:10;101039.50;;;7.11;83.97
22206;BME280;11272;50.104;8.754;2023-04-08T02:33:43;101037.75;;;7.10;84.11
22206;BME280;11272;50.104;8.754;2023-04-08T02:36:12;101044.78;;;7.08;83.86
22206;BME280;11272;50.104;8.754;2023-04-08T02:38:39;101039.47;;;7.06;84.13
22206;BME280;11272;50.104;8.754;2023-04-08T02:41:06;101042.13;;;7.03;84.25
22206;BME280;11272;50.104;8.754;2023-04-08T02:43:31;101047.41;;;7.02;84.07
22206;BME280;11272;50.104;8.754;2023-04-08T02:45:58;101045.66;;;6.99;84.55
22206;BME280;11272;50.104;8.754;2023-04-08T02:48:29;101048.28;;;6.98;84.48
22206;BME280;11272;50.104;8.754;2023-04-08T02:50:55;101044.75;;;6.94;84.34
22206;BME280;11272;50.104;8.754;2023-04-08T02:53:22;101050.91;;;6.93;84.58
22206;BME280;11272;50.104;8.754;2023-04-08T02:55:48;101058.81;;;6.93;84.95
22206;BME280;11272;50.104;8.754;2023-04-08T02:58:14;101057.91;;;6.91;84.92
22206;BME280;11272;50.104;8.754;2023-04-08T03:00:40;101057.94;;;6.88;84.76
22206;BME280;11272;50.104;8.754;2023-04-08T03:03:06;101059.66;;;6.85;85.10
22206;BME280;11272;50.104;8.754;2023-04-08T03:05:32;101057.00;;;6.82;85.11
22206;BME280;11272;50.104;8.754;2023-04-08T03:08:00;101058.75;;;6.80;85.13
22206;BME280;11272;50.104;8.754;2023-04-08T03:10:26;101059.63;;;6.78;85.22
22206;BME280;11272;50.104;8.754;2023-04-08T03:12:51;101062.25;;;6.75;84.90
22206;BME280;11272;50.104;8.754;2023-04-08T03:15:17;101064.00;;;6.73;85.58
22206;BME280;11272;50.104;8.754;2023-04-08T03:17:42;101068.41;;;6.71;85.65
22206;BME280;11272;50.104;8.754;2023-04-08T03:20:08;101056.94;;;6.68;85.70
22206;BME280;11272;50.104;8.754;2023-04-08T03:22:35;101064.88;;;6.66;85.52
22206;BME280;11272;50.104;8.754;2023-04-08T03:25:00;101062.22;;;6.65;85.66
22206;BME280;11272;50.104;8.754;2023-04-08T03:27:26;101059.56;;;6.60;85.45
22206;BME280;11272;50.104;8.754;2023-04-08T03:29:52;101062.16;;;6.57;85.69
22206;BME280;11272;50.104;8.754;2023-04-08T03:58:00;101079.66;;;6.34;86.30
22206;BME280;11272;50.104;8.754;2023-04-08T04:00:25;101084.91;;;6.32;86.05
22206;BME280;11272;50.104;8.754;2023-04-08T04:02:51;101078.75;;;6.29;86.05
22206;BME280;11272;50.104;8.754;2023-04-08T04:05:16;101083.09;;;6.27;86.06
22206;BME280;11272;50.104;8.754;2023-04-08T04:07:42;101080.44;;;6.25;86.63
22206;BME280;11272;50.104;8.754;2023-04-08T04:10:07;101085.72;;;6.22;86.21
22206;BME280;11272;50.104;8.754;2023-04-08T04:12:34;101088.34;;;6.21;86.19
22206;BME280;11272;50.104;8.754;2023-04-08T04:15:00;101082.19;;;6.19;86.80
22206;BME280;11272;50.104;8.754;2023-04-08T04:17:25;101083.00;;;6.15;86.62
22206;BME280;11272;50.104;8.754;2023-04-08T04:19:51;101090.06;;;6.13;86.78
22206;BME280;11272;50.104;8.754;2023-04-08T04:22:17;101080.34;;;6.10;86.67
22206;BME280;11272;50.104;8.754;2023-04-08T04:24:46;101086.47;;;6.06;86.55
22206;BME280;11272;50.104;8.754;2023-04-08T04:27:12;101086.47;;;6.06;87.00
22206;BME280;11272;50.104;8.754;2023-04-08T04:29:38;101087.34;;;6.05;87.06
22206;BME280;11272;50.104;8.754;2023-04-08T04:32:03;101086.47;;;6.05;87.14
22206;BME280;11272;50.104;8.754;2023-04-08T04:34:29;101089.09;;;6.03;87.24
22206;BME280;11272;50.104;8.754;2023-04-08T04:36:54;101092.59;;;6.02;86.97
22206;BME280;11272;50.104;8.754;2023-04-08T04:39:20;101086.44;;;6.02;87.36
22206;BME280;11272;50.104;8.754;2023-04-08T04:41:46;101087.31;;;6.01;87.07
22206;BME280;11272;50.104;8.754;2023-04-08T04:44:13;101096.09;;;6.00;87.33
22206;BME280;11272;50.104;8.754;2023-04-08T04:46:39;101089.94;;;5.98;87.20
22206;BME280;11272;50.104;8.754;2023-04-08T04:49:04;101089.91;;;5.96;87.43
22206;BME280;11272;50.104;8.754;2023-04-08T04:51:30;101093.41;;;5.93;87.63
22206;BME280;11272;50.104;8.754;2023-04-08T04:53:57;101093.41;;;5.93;87.40
22206;BME280;11272;50.104;8.754;2023-04-08T04:56:23;101091.66;;;5.93;87.59
22206;BME280;11272;50.104;8.754;2023-04-08T04:58:49;101104.84;;;5.93;87.60
22206;BME280;11272;50.104;8.754;2023-04-08T05:01:15;101103.97;;;5.92;87.75
22206;BME280;11272;50.104;8.754;2023-04-08T05:03:40;101110.13;;;5.93;87.37
22206;BME280;11272;50.104;8.754;2023-04-08T05:06:06;101110.13;;;5.93;88.06
22206;BME280;11272;50.104;8.754;2023-04-08T05:08:31;101115.38;;;5.93;87.87
22206;BME280;11272;50.104;8.754;2023-04-08T05:10:57;101114.50;;;5.95;87.80
22206;BME280;11272;50.104;8.754;2023-04-08T05:13:27;101112.75;;;5.96;88.09
22206;BME280;11272;50.104;8.754;2023-04-08T05:15:52;101117.16;;;5.97;87.92
22206;BME280;11272;50.104;8.754;2023-04-08T05:18:18;101120.69;;;5.99;87.94
22206;BME280;11272;50.104;8.754;2023-04-08T05:20:44;101119.81;;;6.00;87.95
22206;BME280;11272;50.104;8.754;2023-04-08T05:23:10;101129.50;;;6.01;87.89
22206;BME280;11272;50.104;8.754;2023-04-08T05:25:35;101131.28;;;6.03;88.09
22206;BME280;11272;50.104;8.754;2023-04-08T05:28:01;101127.78;;;6.06;88.30
22206;BME280;11272;50.104;8.754;2023-04-08T05:30:27;101136.59;;;6.08;88.07
22206;BME280;11272;50.104;8.754;2023-04-08T05:32:53;101136.59;;;6.11;88.25
22206;BME280;11272;50.104;8.754;2023-04-08T05:35:18;101137.53;;;6.16;88.06
22206;BME280;11272;50.104;8.754;2023-04-08T05:37:44;101132.28;;;6.19;88.33
22206;BME280;11272;50.104;8.754;2023-04-08T05:40:09;101127.03;;;6.22;88.47
22206;BME280;11272;50.104;8.754;2023-04-08T05:42:35;101137.63;;;6.25;88.52
22206;BME280;11272;50.104;8.754;2023-04-08T05:45:01;101133.25;;;6.30;88.41
22206;BME280;11272;50.104;8.754;2023-04-08T05:47:26;101138.53;;;6.36;88.49
22206;BME280;11272;50.104;8.754;2023-04-08T05:49:52;101139.47;;;6.41;88.43
22206;BME280;11272;50.104;8.754;2023-04-08T05:52:17;101140.38;;;6.45;88.59
22206;BME280;11272;50.104;8.754;2023-04-08T05:54:43;101140.41;;;6.49;88.25
22206;BME280;11272;50.104;8.754;2023-04-08T05:57:08;101145.72;;;6.54;88.55
22206;BME280;11272;50.104;8.754;2023-04-08T05:59:34;101139.59;;;6.59;88.41
22206;BME280;11272;50.104;8.754;2023-04-08T06:02:00;101150.19;;;6.65;87.96
22206;BME280;11272;50.104;8.754;2023-04-08T06:04:25;101152.88;;;6.73;88.28
22206;BME280;11272;50.104;8.754;2023-04-08T06:06:51;101159.06;;;6.78;88.36
22206;BME280;11272;50.104;8.754;2023-04-08T06:09:17;101161.72;;;6.83;87.59
22206;BME280;11272;50.104;8.754;2023-04-08T06:11:42;101164.38;;;6.86;87.65
22206;BME280;11272;50.104;8.754;2023-04-08T06:14:08;101168.78;;;6.88;87.27
22206;BME280;11272;50.104;8.754;2023-04-08T06:16:33;101163.53;;;6.91;87.14
22206;BME280;11272;50.104;8.754;2023-04-08T06:18:59;101169.69;;;6.95;86.74
22206;BME280;11272;50.104;8.754;2023-04-08T06:21:24;101165.31;;;6.98;86.73
22206;BME280;11272;50.104;8.754;2023-04-08T06:23:50;101167.09;;;7.01;86.65
22206;BME280;11272;50.104;8.754;2023-04-08T06:26:17;101178.59;;;7.09;86.21
22206;BME280;11272;50.104;8.754;2023-04-08T06:28:43;101172.44;;;7.16;85.95
22206;BME280;11272;50.104;8.754;2023-04-08T06:31:11;101179.50;;;7.22;85.97
22206;BME280;11272;50.104;8.754;2023-04-08T06:33:36;101176.03;;;7.26;85.54
22206;BME280;11272;50.104;8.754;2023-04-08T06:36:06;101182.19;;;7.32;84.89
22206;BME280;11272;50.104;8.754;2023-04-08T06:38:32;101183.97;;;7.39;85.09
22206;BME280;11272;50.104;8.754;2023-04-08T06:41:05;101184.88;;;7.44;84.51
22206;BME280;11272;50.104;8.754;2023-04-08T06:43:31;101190.16;;;7.49;84.07
22206;BME280;11272;50.104;8.754;2023-04-08T06:45:57;101188.44;;;7.51;84.17
22206;BME280;11272;50.104;8.754;2023-04-08T06:48:23;101191.97;;;7.57;84.07
22206;BME280;11272;50.104;8.754;2023-04-08T06:50:57;101193.78;;;7.68;84.13
22206;BME280;11272;50.104;8.754;2023-04-08T06:53:23;101194.69;;;7.79;83.71
22206;BME280;11272;50.104;8.754;2023-04-08T06:55:49;101193.81;;;7.89;83.04
22206;BME280;11272;50.104;8.754;2023-04-08T06:58:14;101199.09;;;7.98;83.06
22206;BME280;11272;50.104;8.754;2023-04-08T07:00:41;101202.66;;;8.09;82.80
22206;BME280;11272;50.104;8.754;2023-04-08T07:03:06;101197.38;;;8.17;82.12
22206;BME280;11272;50.104;8.754;2023-04-08T07:05:34;101195.63;;;8.28;81.64
22206;BME280;11272;50.104;8.754;2023-04-08T07:08:01;101201.81;;;8.40;81.78
22206;BME280;11272;50.104;8.754;2023-04-08T07:10:27;101199.19;;;8.54;81.21
22206;BME280;11272;50.104;8.754;2023-04-08T07:12:53;101207.09;;;8.68;80.48
22206;BME280;11272;50.104;8.754;2023-04-08T07:15:18;101202.66;;;8.83;80.32
22206;BME280;11272;50.104;8.754;2023-04-08T07:17:44;101206.16;;;9.02;80.04
22206;BME280;11272;50.104;8.754;2023-04-08T07:20:12;101207.84;;;9.20;79.38
22206;BME280;11272;50.104;8.754;2023-04-08T07:22:40;101207.78;;;9.38;79.11
22206;BME280;11272;50.104;8.754;2023-04-08T07:25:06;101207.75;;;9.47;77.93
22206;BME280;11272;50.104;8.754;2023-04-08T07:27:35;101210.38;;;9.52;76.69
22206;BME280;11272;50.104;8.754;2023-04-08T07:30:01;101202.38;;;9.59;77.00
22206;BME280;11272;50.104;8.754;2023-04-08T07:32:27;101210.28;;;9.70;76.20
22206;BME280;11272;50.104;8.754;2023-04-08T07:34:52;101214.66;;;9.79;75.85
22206;BME280;11272;50.104;8.754;2023-04-08T07:37:19;101211.06;;;9.84;74.99
22206;BME280;11272;50.104;8.754;2023-04-08T07:39:45;101222.56;;;9.85;74.86
22206;BME280;11272;50.104;8.754;2023-04-08T07:42:10;101225.25;;;9.82;73.60
22206;BME280;11272;50.104;8.754;2023-04-08T07:44:36;101220.84;;;9.78;73.91
22206;BME280;11272;50.104;8.754;2023-04-08T07:47:03;101219.06;;;9.78;73.52
22206;BME280;11272;50.104;8.754;2023-04-08T07:49:28;101227.94;;;9.74;73.02
22206;BME280;11272;50.104;8.754;2023-04-08T07:51:54;101221.75;;;9.75;73.03
22206;BME280;11272;50.104;8.754;2023-04-08T07:54:20;101228.78;;;9.78;72.84
22206;BME280;11272;50.104;8.754;2023-04-08T07:56:45;101215.53;;;9.79;72.62
22206;BME280;11272;50.104;8.754;2023-04-08T07:59:11;101228.78;;;9.82;72.29
22206;BME280;11272;50.104;8.754;2023-04-08T08:01:38;101243.81;;;9.80;72.17
22206;BME280;11272;50.104;8.754;2023-04-08T08:04:04;101241.19;;;9.77;72.04
22206;BME280;11272;50.104;8.754;2023-04-08T08:06:30;101243.84;;;9.74;71.66
22206;BME280;11272;50.104;8.754;2023-04-08T08:08:59;101243.00;;;9.72;72.08
22206;BME280;11272;50.104;8.754;2023-04-08T08:11:25;101248.31;;;9.70;71.62
22206;BME280;11272;50.104;8.754;2023-04-08T08:13:54;101250.94;;;9.72;71.80
22206;BME280;11272;50.104;8.754;2023-04-08T08:16:19;101252.69;;;9.73;71.29
22206;BME280;11272;50.104;8.754;2023-04-08T08:18:45;101250.03;;;9.75;71.39
22206;BME280;11272;50.104;8.754;2023-04-08T08:21:11;101250.94;;;9.73;71.39
22206;BME280;11272;50.104;8.754;2023-04-08T08:23:36;101258.84;;;9.80;71.03
22206;BME280;11272;50.104;8.754;2023-04-08T08:26:05;101253.56;;;9.83;70.64
22206;BME280;11272;50.104;8.754;2023-04-08T08:28:31;101256.19;;;9.84;69.93
22206;BME280;11272;50.104;8.754;2023-04-08T08:30:57;101256.19;;;9.84;69.58
22206;BME280;11272;50.104;8.754;2023-04-08T08:33:24;101262.38;;;9.83;68.58
22206;BME280;11272;50.104;8.754;2023-04-08T08:35:49;101266.78;;;9.84;68.65
22206;BME280;11272;50.104;8.754;2023-04-08T08:38:15;101273.84;;;9.91;68.14
22206;BME280;11272;50.104;8.754;2023-04-08T08:40:42;101274.69;;;9.98;67.52
22206;BME280;11272;50.104;8.754;2023-04-08T08:43:09;101274.66;;;10.01;67.09
22206;BME280;11272;50.104;8.754;2023-04-08T08:45:39;101276.38;;;10.11;67.12
22206;BME280;11272;50.104;8.754;2023-04-08T08:48:06;101284.34;;;10.19;66.31
22206;BME280;11272;50.104;8.754;2023-04-08T08:50:36;101286.06;;;10.23;66.44
22206;BME280;11272;50.104;8.754;2023-04-08T08:53:03;101279.84;;;10.28;66.79
22206;BME280;11272;50.104;8.754;2023-04-08T08:55:30;101283.31;;;10.39;66.44
22206;BME280;11272;50.104;8.754;2023-04-08T08:58:01;101277.03;;;10.48;66.40
22206;BME280;11272;50.104;8.754;2023-04-08T09:00:37;101290.22;;;10.62;66.87
22206;BME280;11272;50.104;8.754;2023-04-08T09:03:23;101280.44;;;10.68;66.75
22206;BME280;11272;50.104;8.754;2023-04-08T09:05:51;101278.63;;;10.73;66.31
22206;BME280;11272;50.104;8.754;2023-04-08T09:08:36;101294.53;;;10.76;66.71
22206;BME280;11272;50.104;8.754;2023-04-08T09:11:15;101284.69;;;10.86;66.67
22206;BME280;11272;50.104;8.754;2023-04-08T09:13:41;101289.06;;;10.94;66.57
22206;BME280;11272;50.104;8.754;2023-04-08T09:16:09;101285.44;;;11.02;66.03
22206;BME280;11272;50.104;8.754;2023-04-08T09:18:38;101294.22;;;11.08;65.51
22206;BME280;11272;50.104;8.754;2023-04-08T09:21:06;101288.91;;;11.10;65.08
22206;BME280;11272;50.104;8.754;2023-04-08T09:23:45;101287.91;;;11.20;64.88
22206;BME280;11272;50.104;8.754;2023-04-08T09:26:13;101288.66;;;11.34;64.71
22206;BME280;11272;50.104;8.754;2023-04-08T09:28:40;101288.50;;;11.48;64.54
22206;BME280;11272;50.104;8.754;2023-04-08T09:31:17;101286.50;;;11.66;63.95
22206;BME280;11272;50.104;8.754;2023-04-08T09:33:44;101287.28;;;11.77;63.09
22206;BME280;11272;50.104;8.754;2023-04-08T09:36:09;101282.66;;;11.92;62.50
22206;BME280;11272;50.104;8.754;2023-04-08T09:38:36;101285.28;;;11.96;62.06
22206;BME280;11272;50.104;8.754;2023-04-08T09:41:06;101295.88;;;12.01;61.41
22206;BME280;11272;50.104;8.754;2023-04-08T09:43:35;101294.03;;;12.06;61.12
22206;BME280;11272;50.104;8.754;2023-04-08T09:46:07;101298.31;;;12.14;60.47
22206;BME280;11272;50.104;8.754;2023-04-08T09:48:41;101293.00;;;12.16;59.00
22206;BME280;11272;50.104;8.754;2023-04-08T09:51:11;101301.94;;;12.12;58.27
22206;BME280;11272;50.104;8.754;2023-04-08T09:53:47;101292.19;;;12.11;57.96
22206;BME280;11272;50.104;8.754;2023-04-08T09:56:16;101297.34;;;12.21;57.80
22206;BME280;11272;50.104;8.754;2023-04-08T09:59:02;101292.69;;;12.37;57.41
22206;BME280;11272;50.104;8.754;2023-04-08T10:01:37;101289.03;;;12.44;56.72
22206;BME280;11272;50.104;8.754;2023-04-08T10:04:11;101293.47;;;12.44;56.30
22206;BME280;11272;50.104;8.754;2023-04-08T10:06:39;101294.31;;;12.46;56.33
22206;BME280;11272;50.104;8.754;2023-04-08T10:09:05;101283.53;;;12.53;56.53
22206;BME280;11272;50.104;8.754;2023-04-08T10:11:32;101291.44;;;12.59;56.52
22206;BME280;11272;50.104;8.754;2023-04-08T10:13:58;101287.66;;;12.74;56.42
22206;BME280;11272;50.104;8.754;2023-04-08T10:16:25;101283.84;;;12.89;56.21
22206;BME280;11272;50.104;8.754;2023-04-08T10:18:55;101282.94;;;12.90;55.66
22206;BME280;11272;50.104;8.754;2023-04-08T10:21:35;101290.75;;;13.00;56.07
22206;BME280;11272;50.104;8.754;2023-04-08T10:24:10;101277.84;;;13.28;55.78
22206;BME280;11272;50.104;8.754;2023-04-08T10:26:43;101272.53;;;13.70;55.74
22206;BME280;11272;50.104;8.754;2023-04-08T10:29:29;101283.28;;;14.10;55.15
22206;BME280;11272;50.104;8.754;2023-04-08T10:31:55;101276.38;;;14.38;54.60
22206;BME280;11272;50.104;8.754;2023-04-08T10:34:23;101274.69;;;14.72;54.12
22206;BME280;11272;50.104;8.754;2023-04-08T10:36:51;101265.03;;;15.01;53.41
22206;BME280;11272;50.104;8.754;2023-04-08T10:39:18;101271.84;;;15.45;53.59
22206;BME280;11272;50.104;8.754;2023-04-08T10:41:47;101265.31;;;16.15;53.19
22206;BME280;11272;50.104;8.754;2023-04-08T10:44:21;101266.53;;;16.89;51.39
22206;BME280;11272;50.104;8.754;2023-04-08T10:46:48;101273.75;;;17.38;50.31
22206;BME280;11272;50.104;8.754;2023-04-08T10:49:15;101266.41;;;17.91;49.27
22206;BME280;11272;50.104;8.754;2023-04-08T10:51:42;101270.75;;;17.95;48.22
22206;BME280;11272;50.104;8.754;2023-04-08T10:54:10;101276.19;;;17.93;47.18
22206;BME280;11272;50.104;8.754;2023-04-08T10:56:46;101273.56;;;17.92;46.65
22206;BME280;11272;50.104;8.754;2023-04-08T10:59:15;101273.72;;;17.87;46.35
22206;BME280;11272;50.104;8.754;2023-04-08T11:01:43;101270.84;;;17.92;46.44
22206;BME280;11272;50.104;8.754;2023-04-08T11:04:13;101269.69;;;17.99;45.79
22206;BME280;11272;50.104;8.754;2023-04-08T11:06:41;101267.13;;;17.96;45.60
22206;BME280;11272;50.104;8.754;2023-04-08T11:09:07;101264.56;;;17.93;45.53
22206;BME280;11272;50.104;8.754;2023-04-08T11:11:33;101261.16;;;17.88;45.17
22206;BME280;11272;50.104;8.754;2023-04-08T11:14:00;101259.81;;;17.76;45.06
22206;BME280;11272;50.104;8.754;2023-04-08T11:16:26;101261.75;;;17.73;45.08
22206;BME280;11272;50.104;8.754;2023-04-08T11:18:53;101255.50;;;17.72;44.92
22206;BME280;11272;50.104;8.754;2023-04-08T11:21:22;101249.66;;;17.61;44.89
22206;BME280;11272;50.104;8.754;2023-04-08T11:23:49;101247.91;;;17.58;45.09
22206;BME280;11272;50.104;8.754;2023-04-08T11:26:16;101250.06;;;17.49;45.20
22206;BME280;11272;50.104;8.754;2023-04-08T11:28:42;101254.78;;;17.42;45.35
22206;BME280;11272;50.104;8.754;2023-04-08T11:31:09;101258.84;;;17.29;45.55
22206;BME280;11272;50.104;8.754;2023-04-08T11:33:35;101258.91;;;17.27;45.80
22206;BME280;11272;50.104;8.754;2023-04-08T11:36:01;101253.47;;;17.29;45.74
22206;BME280;11272;50.104;8.754;2023-04-08T11:38:28;101258.97;;;17.51;45.88
22206;BME280;11272;50.104;8.754;2023-04-08T11:40:55;101259.13;;;17.71;45.05
22206;BME280;11272;50.104;8.754;2023-04-08T11:43:21;101264.66;;;17.66;45.34
22206;BME280;11272;50.104;8.754;2023-04-08T11:45:47;101258.41;;;17.66;45.18
22206;BME280;11272;50.104;8.754;2023-04-08T11:48:14;101248.97;;;17.54;45.26
22206;BME280;11272;50.104;8.754;2023-04-08T11:50:41;101250.47;;;17.86;45.66
22206;BME280;11272;50.104;8.754;2023-04-08T11:53:23;101255.94;;;18.95;45.30
22206;BME280;11272;50.104;8.754;2023-04-08T11:55:49;101245.72;;;20.01;43.94
22206;BME280;11272;50.104;8.754;2023-04-08T11:58:15;101242.78;;;20.25;42.66
22206;BME280;11272;50.104;8.754;2023-04-08T12:00:40;101249.31;;;20.02;42.47
22206;BME280;11272;50.104;8.754;2023-04-08T12:03:07;101248.22;;;19.87;42.47
22206;BME280;11272;50.104;8.754;2023-04-08T12:05:32;101246.84;;;19.97;42.39
22206;BME280;11272;50.104;8.754;2023-04-08T12:07:58;101237.72;;;20.37;42.33
22206;BME280;11272;50.104;8.754;2023-04-08T12:10:24;101247.84;;;20.68;41.15
22206;BME280;11272;50.104;8.754;2023-04-08T12:12:50;101247.84;;;20.51;40.90
22206;BME280;11272;50.104;8.754;2023-04-08T12:15:16;101253.06;;;20.73;40.87
22206;BME280;11272;50.104;8.754;2023-04-08T12:17:42;101249.66;;;21.04;40.33
22206;BME280;11272;50.104;8.754;2023-04-08T12:20:11;101247.13;;;21.35;39.73
22206;BME280;11272;50.104;8.754;2023-04-08T12:22:37;101248.56;;;21.25;39.36
22206;BME280;11272;50.104;8.754;2023-04-08T12:25:03;101248.38;;;20.93;39.48
22206;BME280;11272;50.104;8.754;2023-04-08T12:27:29;101244.78;;;20.76;39.61
22206;BME280;11272;50.104;8.754;2023-04-08T12:29:58;101249.03;;;20.98;39.25
22206;BME280;11272;50.104;8.754;2023-04-08T12:32:23;101249.81;;;21.00;39.26
22206;BME280;11272;50.104;8.754;2023-04-08T12:34:50;101241.63;;;20.85;38.87
22206;BME280;11272;50.104;8.754;2023-04-08T12:37:16;101237.91;;;21.22;39.19
22206;BME280;11272;50.104;8.754;2023-04-08T12:39:41;101234.75;;;21.97;38.44
22206;BME280;11272;50.104;8.754;2023-04-08T12:42:07;101231.06;;;22.60;37.57
22206;BME280;11272;50.104;8.754;2023-04-08T12:44:32;101222.59;;;23.12;36.92
22206;BME280;11272;50.104;8.754;2023-04-08T12:46:58;101219.63;;;23.31;36.24
22206;BME280;11272;50.104;8.754;2023-04-08T12:49:24;101224.91;;;23.48;35.91
22206;BME280;11272;50.104;8.754;2023-04-08T12:51:50;101218.81;;;23.15;35.77
22206;BME280;11272;50.104;8.754;2023-04-08T12:54:16;101226.81;;;22.56;35.96
22206;BME280;11272;50.104;8.754;2023-04-08T12:56:42;101232.00;;;21.81;36.61
22206;BME280;11272;50.104;8.754;2023-04-08T12:59:11;101227.09;;;21.39;37.19
22206;BME280;11272;50.104;8.754;2023-04-08T13:01:36;101224.41;;;21.05;37.71
22206;BME280;11272;50.104;8.754;2023-04-08T13:04:02;101232.34;;;21.08;37.73
22206;BME280;11272;50.104;8.754;2023-04-08T13:06:28;101230.25;;;20.95;37.90
22206;BME280;11272;50.104;8.754;2023-04-08T13:08:54;101233.88;;;20.60;38.48
22206;BME280;11272;50.104;8.754;2023-04-08T13:11:19;101232.31;;;20.18;38.72
22206;BME280;11272;50.104;8.754;2023-04-08T13:13:45;101242.72;;;19.70;39.39
22206;BME280;11272;50.104;8.754;2023-04-08T13:16:12;101236.66;;;19.24;40.04
22206;BME280;11272;50.104;8.754;2023-04-08T13:18:44;101246.88;;;18.76;40.77
22206;BME280;11272;50.104;8.754;2023-04-08T13:21:21;101248.53;;;18.35;41.45
22206;BME280;11272;50.104;8.754;2023-04-08T13:23:46;101252.22;;;18.11;42.02
22206;BME280;11272;50.104;8.754;2023-04-08T13:26:12;101248.84;;;17.82;42.58
22206;BME280;11272;50.104;8.754;2023-04-08T13:28:37;101252.28;;;17.62;43.24
22206;BME280;11272;50.104;8.754;2023-04-08T13:31:03;101248.44;;;17.45;43.53
22206;BME280;11272;50.104;8.754;2023-04-08T13:33:28;101252.06;;;17.19;44.03
22206;BME280;11272;50.104;8.754;2023-04-08T13:35:54;101243.47;;;17.09;44.25
22206;BME280;11272;50.104;8.754;2023-04-08T13:38:20;101245.16;;;17.12;44.57
22206;BME280;11272;50.104;8.754;2023-04-08T13:40:45;101249.59;;;17.13;44.65
22206;BME280;11272;50.104;8.754;2023-04-08T13:43:11;101248.19;;;17.01;44.87
22206;BME280;11272;50.104;8.754;2023-04-08T13:45:36;101245.69;;;16.97;45.32
22206;BME280;11272;50.104;8.754;2023-04-08T13:48:03;101249.41;;;16.93;45.11
22206;BME280;11272;50.104;8.754;2023-04-08T13:50:29;101246.97;;;16.85;45.37
22206;BME280;11272;50.104;8.754;2023-04-08T13:52:54;101250.19;;;16.70;45.53
22206;BME280;11272;50.104;8.754;2023-04-08T13:55:21;101243.59;;;16.52;45.96
22206;BME280;11272;50.104;8.754;2023-04-08T13:57:46;101244.72;;;16.45;46.28
22206;BME280;11272;50.104;8.754;2023-04-08T14:00:12;101239.44;;;16.42;46.34
22206;BME280;11272;50.104;8.754;2023-04-08T14:02:40;101254.81;;;16.37;46.62
22206;BME280;11272;50.104;8.754;2023-04-08T14:05:06;101253.47;;;16.24;47.00
22206;BME280;11272;50.104;8.754;2023-04-08T14:07:31;101251.03;;;16.15;47.32
22206;BME280;11272;50.104;8.754;2023-04-08T14:09:57;101250.31;;;16.10;47.38
22206;BME280;11272;50.104;8.754;2023-04-08T14:12:22;101249.69;;;16.02;47.63
22206;BME280;11272;50.104;8.754;2023-04-08T14:14:48;101251.63;;;15.96;47.78
22206;BME280;11272;50.104;8.754;2023-04-08T14:17:13;101244.66;;;15.91;48.13
22206;BME280;11272;50.104;8.754;2023-04-08T14:19:39;101248.22;;;15.91;48.52
22206;BME280;11272;50.104;8.754;2023-04-08T14:22:06;101245.44;;;15.94;48.50
22206;BME280;11272;50.104;8.754;2023-04-08T14:24:32;101252.38;;;16.02;48.67
22206;BME280;11272;50.104;8.754;2023-04-08T14:26:58;101250.41;;;16.07;48.35
22206;BME280;11272;50.104;8.754;2023-04-08T14:29:24;101249.53;;;16.06;48.72
22206;BME280;11272;50.104;8.754;2023-04-08T14:31:50;101243.19;;;16.09;48.75
22206;BME280;11272;50.104;8.754;2023-04-08T14:34:15;101252.94;;;16.11;48.56
22206;BME280;11272;50.104;8.754;2023-04-08T14:36:41;101246.91;;;16.05;48.83
22206;BME280;11272;50.104;8.754;2023-04-08T14:39:06;101248.78;;;16.03;48.95
22206;BME280;11272;50.104;8.754;2023-04-08T14:41:32;101243.19;;;16.09;48.95
22206;BME280;11272;50.104;8.754;2023-04-08T14:43:57;101252.69;;;16.19;48.95
22206;BME280;11272;50.104;8.754;2023-04-08T14:46:25;101239.09;;;16.25;49.21
22206;BME280;11272;50.104;8.754;2023-04-08T14:48:50;101253.47;;;16.24;49.06
22206;BME280;11272;50.104;8.754;2023-04-08T14:51:16;101248.03;;;16.25;49.09
22206;BME280;11272;50.104;8.754;2023-04-08T14:53:43;101245.19;;;16.30;49.02
22206;BME280;11272;50.104;8.754;2023-04-08T14:56:08;101252.28;;;16.32;48.97